sensor_id;sensor_type;location;lat;lon;timestamp;P1;durP1;ratioP1;P2;durP2;ratioP2
29824;SDS011;16713;52.916;12.834;2023-07-20T00:01:34;8.52;;;6.85;;
29824;SDS011;16713;52.916;12.834;2023-07-20T00:04:00;10.77;;;7.40;;
29824;SDS011;16713;52.916;12.834;2023-07-20T00:06:27;8.65;;;6.97;;
29824;SDS011;16713;52.916;12.834;2023-07-20T00:08:54;9.30;;;7.82;;
29824;SDS011;16713;52.916;12.834;2023-07-20T00:11:26;10.23;;;7.70;;
29824;SDS011;16713;52.916;12.834;2023-07-20T00:13:53;12.85;;;8.10;;
29824;SDS011;16713;52.916;12.834;2023-07-20T00:16:20;12.50;;;7.82;;
29824;SDS011;16713;52.916;12.834;2023-07-20T00:18:47;10.98;;;9.00;;
29824;SDS011;16713;52.916;12.834;2023-07-20T00:21:13;10.95;;;8.43;;
29824;SDS011;16713;52.916;12.834;2023-07-20T00:23:40;11.43;;;8.13;;
29824;SDS011;16713;52.916;12.834;2023-07-20T00:26:06;9.63;;;7.88;;
29824;SDS011;16713;52.916;12.834;2023-07-20T00:28:33;7.75;;;6.63;;
29824;SDS011;16713;52.916;12.834;2023-07-20T00:30:59;10.48;;;7.55;;
29824;SDS011;16713;52.916;12.834;2023-07-20T00:33:26;12.02;;;7.80;;
29824;SDS011;16713;52.916;12.834;2023-07-20T00:35:53;9.57;;;8.43;;
29824;SDS011;16713;52.916;12.834;2023-07-20T00:38:19;11.60;;;8.23;;
29824;SDS011;16713;52.916;12.834;2023-07-20T00:40:46;10.27;;;8.38;;
29824;SDS011;16713;52.916;12.834;2023-07-20T00:43:14;11.20;;;8.73;;
29824;SDS011;16713;52.916;12.834;2023-07-20T00:45:41;14.15;;;9.23;;
29824;SDS011;16713;52.916;12.834;2023-07-20T00:48:08;14.40;;;9.45;;
29824;SDS011;16713;52.916;12.834;2023-07-20T00:50:35;15.05;;;9.60;;
29824;SDS011;16713;52.916;12.834;2023-07-20T00:53:02;12.43;;;9.15;;
29824;SDS011;16713;52.916;12.834;2023-07-20T00:55:31;12.57;;;9.75;;
29824;SDS011;16713;52.916;12.834;2023-07-20T00:57:58;15.68;;;11.10;;
29824;SDS011;16713;52.916;12.834;2023-07-20T01:00:25;16.80;;;10.43;;
29824;SDS011;16713;52.916;12.834;2023-07-20T01:02:52;14.05;;;10.18;;
29824;SDS011;16713;52.916;12.834;2023-07-20T01:05:19;12.57;;;10.00;;
29824;SDS011;16713;52.916;12.834;2023-07-20T01:07:55;14.02;;;10.52;;
29824;SDS011;16713;52.916;12.834;2023-07-20T01:12:59;12.80;;;9.25;;
29824;SDS011;16713;52.916;12.834;2023-07-20T01:15:27;13.57;;;10.32;;
29824;SDS011;16713;52.916;12.834;2023-07-20T01:17:54;18.48;;;10.18;;
29824;SDS011;16713;52.916;12.834;2023-07-20T01:20:20;11.57;;;9.80;;
29824;SDS011;16713;52.916;12.834;2023-07-20T01:26:02;12.48;;;10.80;;
29824;SDS011;16713;52.916;12.834;2023-07-20T01:31:21;11.73;;;9.95;;
29824;SDS011;16713;52.916;12.834;2023-07-20T01:33:52;13.00;;;9.90;;
29824;SDS011;16713;52.916;12.834;2023-07-20T01:36:21;13.88;;;9.60;;
29824;SDS011;16713;52.916;12.834;2023-07-20T01:38:51;13.00;;;10.60;;
29824;SDS011;16713;52.916;12.834;2023-07-20T01:41:18;11.45;;;10.15;;
29824;SDS011;16713;52.916;12.834;2023-07-20T01:43:45;12.65;;;10.30;;
29824;SDS011;16713;52.916;12.834;2023-07-20T01:46:12;11.77;;;9.48;;
29824;SDS011;16713;52.916;12.834;2023-07-20T01:48:39;13.10;;;10.15;;
29824;SDS011;16713;52.916;12.834;2023-07-20T01:51:05;11.07;;;9.32;;
29824;SDS011;16713;52.916;12.834;2023-07-20T01:53:32;11.27;;;9.90;;
29824;SDS011;16713;52.916;12.834;2023-07-20T01:55:58;11.15;;;9.32;;
29824;SDS011;16713;52.916;12.834;2023-07-20T01:58:25;10.60;;;9.50;;
29824;SDS011;16713;52.916;12.834;2023-07-20T02:00:51;10.45;;;9.18;;
29824;SDS011;16713;52.916;12.834;2023-07-20T02:03:18;10.93;;;9.23;;
29824;SDS011;16713;52.916;12.834;2023-07-20T02:05:44;11.30;;;8.68;;
29824;SDS011;16713;52.916;12.834;2023-07-20T02:08:11;9.82;;;8.68;;
29824;SDS011;16713;52.916;12.834;2023-07-20T02:10:38;10.52;;;9.43;;
29824;SDS011;16713;52.916;12.834;2023-07-20T02:13:04;11.55;;;8.98;;
29824;SDS011;16713;52.916;12.834;2023-07-20T02:15:31;9.65;;;8.65;;
29824;SDS011;16713;52.916;12.834;2023-07-20T02:17:57;11.60;;;8.82;;
29824;SDS011;16713;52.916;12.834;2023-07-20T02:20:24;10.95;;;7.75;;
29824;SDS011;16713;52.916;12.834;2023-07-20T02:22:50;9.52;;;8.55;;
29824;SDS011;16713;52.916;12.834;2023-07-20T02:25:17;10.43;;;7.57;;
29824;SDS011;16713;52.916;12.834;2023-07-20T02:27:43;9.77;;;8.35;;
29824;SDS011;16713;52.916;12.834;2023-07-20T02:30:09;9.88;;;8.32;;
29824;SDS011;16713;52.916;12.834;2023-07-20T02:32:36;9.07;;;7.68;;
29824;SDS011;16713;52.916;12.834;2023-07-20T02:35:03;10.43;;;7.28;;
29824;SDS011;16713;52.916;12.834;2023-07-20T02:37:30;9.85;;;8.00;;
29824;SDS011;16713;52.916;12.834;2023-07-20T02:39:57;8.00;;;7.20;;
29824;SDS011;16713;52.916;12.834;2023-07-20T02:42:23;8.30;;;7.50;;
29824;SDS011;16713;52.916;12.834;2023-07-20T02:44:52;9.65;;;7.60;;
29824;SDS011;16713;52.916;12.834;2023-07-20T02:47:18;11.07;;;7.47;;
29824;SDS011;16713;52.916;12.834;2023-07-20T02:49:45;9.23;;;7.53;;
29824;SDS011;16713;52.916;12.834;2023-07-20T02:52:11;11.13;;;8.10;;
29824;SDS011;16713;52.916;12.834;2023-07-20T02:54:38;12.20;;;8.00;;
29824;SDS011;16713;52.916;12.834;2023-07-20T02:57:04;10.93;;;7.80;;
29824;SDS011;16713;52.916;12.834;2023-07-20T02:59:31;10.65;;;8.02;;
29824;SDS011;16713;52.916;12.834;2023-07-20T03:01:58;10.20;;;8.07;;
29824;SDS011;16713;52.916;12.834;2023-07-20T03:04:27;10.85;;;7.78;;
29824;SDS011;16713;52.916;12.834;2023-07-20T03:06:54;10.55;;;8.20;;
29824;SDS011;16713;52.916;12.834;2023-07-20T03:09:20;11.20;;;7.93;;
29824;SDS011;16713;52.916;12.834;2023-07-20T03:11:48;10.02;;;7.80;;
29824;SDS011;16713;52.916;12.834;2023-07-20T03:14:16;10.38;;;7.63;;
29824;SDS011;16713;52.916;12.834;2023-07-20T03:16:42;10.13;;;7.25;;
29824;SDS011;16713;52.916;12.834;2023-07-20T03:19:09;10.85;;;7.68;;
29824;SDS011;16713;52.916;12.834;2023-07-20T03:21:36;8.73;;;7.22;;
29824;SDS011;16713;52.916;12.834;2023-07-20T03:24:07;11.15;;;8.18;;
29824;SDS011;16713;52.916;12.834;2023-07-20T03:26:35;9.00;;;7.13;;
29824;SDS011;16713;52.916;12.834;2023-07-20T03:29:02;9.80;;;6.82;;
29824;SDS011;16713;52.916;12.834;2023-07-20T03:31:30;13.23;;;7.40;;
29824;SDS011;16713;52.916;12.834;2023-07-20T03:33:56;8.45;;;6.95;;
29824;SDS011;16713;52.916;12.834;2023-07-20T03:36:23;7.90;;;6.90;;
29824;SDS011;16713;52.916;12.834;2023-07-20T03:38:50;11.38;;;7.00;;
29824;SDS011;16713;52.916;12.834;2023-07-20T03:41:17;9.70;;;7.35;;
29824;SDS011;16713;52.916;12.834;2023-07-20T03:43:43;9.63;;;7.15;;
29824;SDS011;16713;52.916;12.834;2023-07-20T03:46:10;8.93;;;7.30;;
29824;SDS011;16713;52.916;12.834;2023-07-20T03:48:36;12.27;;;7.45;;
29824;SDS011;16713;52.916;12.834;2023-07-20T03:51:03;10.27;;;7.32;;
29824;SDS011;16713;52.916;12.834;2023-07-20T03:53:29;9.63;;;6.82;;
29824;SDS011;16713;52.916;12.834;2023-07-20T03:55:55;9.30;;;6.93;;
29824;SDS011;16713;52.916;12.834;2023-07-20T03:58:22;9.77;;;7.13;;
29824;SDS011;16713;52.916;12.834;2023-07-20T04:00:50;8.75;;;6.20;;
29824;SDS011;16713;52.916;12.834;2023-07-20T04:03:18;8.80;;;7.10;;
29824;SDS011;16713;52.916;12.834;2023-07-20T04:05:46;8.38;;;6.93;;
29824;SDS011;16713;52.916;12.834;2023-07-20T04:08:13;8.90;;;6.45;;
29824;SDS011;16713;52.916;12.834;2023-07-20T04:10:39;9.75;;;7.13;;
29824;SDS011;16713;52.916;12.834;2023-07-20T04:13:09;8.50;;;5.82;;
29824;SDS011;16713;52.916;12.834;2023-07-20T04:15:36;7.43;;;5.95;;
29824;SDS011;16713;52.916;12.834;2023-07-20T04:18:02;9.48;;;6.10;;
29824;SDS011;16713;52.916;12.834;2023-07-20T04:20:29;7.32;;;6.03;;
29824;SDS011;16713;52.916;12.834;2023-07-20T04:22:55;8.00;;;5.75;;
29824;SDS011;16713;52.916;12.834;2023-07-20T04:25:22;8.95;;;6.15;;
29824;SDS011;16713;52.916;12.834;2023-07-20T04:27:48;6.20;;;5.20;;
29824;SDS011;16713;52.916;12.834;2023-07-20T04:30:16;7.63;;;5.43;;
29824;SDS011;16713;52.916;12.834;2023-07-20T04:32:46;5.80;;;5.22;;
29824;SDS011;16713;52.916;12.834;2023-07-20T04:38:18;6.63;;;5.43;;
29824;SDS011;16713;52.916;12.834;2023-07-20T04:40:46;6.53;;;4.68;;
29824;SDS011;16713;52.916;12.834;2023-07-20T04:43:14;5.90;;;4.55;;
29824;SDS011;16713;52.916;12.834;2023-07-20T04:45:41;4.20;;;3.80;;
29824;SDS011;16713;52.916;12.834;2023-07-20T04:48:11;6.13;;;4.75;;
29824;SDS011;16713;52.916;12.834;2023-07-20T04:50:42;7.85;;;5.22;;
29824;SDS011;16713;52.916;12.834;2023-07-20T04:53:10;6.10;;;4.80;;
29824;SDS011;16713;52.916;12.834;2023-07-20T04:55:37;5.82;;;4.47;;
29824;SDS011;16713;52.916;12.834;2023-07-20T04:58:04;5.13;;;4.40;;
29824;SDS011;16713;52.916;12.834;2023-07-20T05:00:34;5.20;;;4.65;;
29824;SDS011;16713;52.916;12.834;2023-07-20T05:03:04;7.03;;;5.15;;
29824;SDS011;16713;52.916;12.834;2023-07-20T05:05:31;7.43;;;5.07;;
29824;SDS011;16713;52.916;12.834;2023-07-20T05:07:58;10.02;;;5.78;;
29824;SDS011;16713;52.916;12.834;2023-07-20T05:10:24;5.53;;;5.03;;
29824;SDS011;16713;52.916;12.834;2023-07-20T05:12:51;5.53;;;3.72;;
29824;SDS011;16713;52.916;12.834;2023-07-20T05:15:17;6.57;;;4.43;;
29824;SDS011;16713;52.916;12.834;2023-07-20T05:17:44;4.82;;;3.63;;
29824;SDS011;16713;52.916;12.834;2023-07-20T05:20:11;5.28;;;3.90;;
29824;SDS011;16713;52.916;12.834;2023-07-20T05:22:38;7.43;;;3.88;;
29824;SDS011;16713;52.916;12.834;2023-07-20T05:25:09;4.15;;;3.50;;
29824;SDS011;16713;52.916;12.834;2023-07-20T05:27:37;7.53;;;4.53;;
29824;SDS011;16713;52.916;12.834;2023-07-20T05:30:05;5.35;;;4.07;;
29824;SDS011;16713;52.916;12.834;2023-07-20T05:32:33;4.55;;;3.70;;
29824;SDS011;16713;52.916;12.834;2023-07-20T05:35:00;4.00;;;3.60;;
29824;SDS011;16713;52.916;12.834;2023-07-20T05:37:26;9.73;;;3.92;;
29824;SDS011;16713;52.916;12.834;2023-07-20T05:39:53;3.80;;;3.13;;
29824;SDS011;16713;52.916;12.834;2023-07-20T05:42:19;4.97;;;2.80;;
29824;SDS011;16713;52.916;12.834;2023-07-20T05:44:46;4.53;;;2.80;;
29824;SDS011;16713;52.916;12.834;2023-07-20T05:47:14;5.13;;;2.33;;
29824;SDS011;16713;52.916;12.834;2023-07-20T05:49:40;3.25;;;2.40;;
29824;SDS011;16713;52.916;12.834;2023-07-20T05:52:07;4.75;;;2.33;;
29824;SDS011;16713;52.916;12.834;2023-07-20T05:54:33;4.45;;;2.33;;
29824;SDS011;16713;52.916;12.834;2023-07-20T05:57:00;1.98;;;1.70;;
29824;SDS011;16713;52.916;12.834;2023-07-20T05:59:27;3.50;;;1.80;;
29824;SDS011;16713;52.916;12.834;2023-07-20T06:01:55;2.30;;;2.10;;
29824;SDS011;16713;52.916;12.834;2023-07-20T06:04:22;3.55;;;1.92;;
29824;SDS011;16713;52.916;12.834;2023-07-20T06:06:49;3.50;;;1.95;;
29824;SDS011;16713;52.916;12.834;2023-07-20T06:09:15;4.53;;;1.50;;
29824;SDS011;16713;52.916;12.834;2023-07-20T06:11:42;1.63;;;1.50;;
29824;SDS011;16713;52.916;12.834;2023-07-20T06:14:08;3.50;;;1.58;;
29824;SDS011;16713;52.916;12.834;2023-07-20T06:16:35;2.28;;;1.50;;
29824;SDS011;16713;52.916;12.834;2023-07-20T06:19:01;2.55;;;1.50;;
29824;SDS011;16713;52.916;12.834;2023-07-20T06:21:28;1.90;;;1.48;;
29824;SDS011;16713;52.916;12.834;2023-07-20T06:23:54;1.50;;;1.20;;
29824;SDS011;16713;52.916;12.834;2023-07-20T06:26:21;2.00;;;1.38;;
29824;SDS011;16713;52.916;12.834;2023-07-20T06:28:48;3.58;;;1.30;;
29824;SDS011;16713;52.916;12.834;2023-07-20T06:31:14;3.08;;;1.20;;
29824;SDS011;16713;52.916;12.834;2023-07-20T06:33:41;2.78;;;0.90;;
29824;SDS011;16713;52.916;12.834;2023-07-20T06:36:07;4.95;;;1.30;;
29824;SDS011;16713;52.916;12.834;2023-07-20T06:38:34;2.42;;;0.70;;
29824;SDS011;16713;52.916;12.834;2023-07-20T06:41:00;2.92;;;1.58;;
29824;SDS011;16713;52.916;12.834;2023-07-20T06:43:30;2.17;;;1.20;;
29824;SDS011;16713;52.916;12.834;2023-07-20T06:45:59;1.60;;;1.00;;
29824;SDS011;16713;52.916;12.834;2023-07-20T06:48:25;4.38;;;1.05;;
29824;SDS011;16713;52.916;12.834;2023-07-20T06:50:52;3.10;;;1.50;;
29824;SDS011;16713;52.916;12.834;2023-07-20T06:53:20;1.60;;;1.48;;
29824;SDS011;16713;52.916;12.834;2023-07-20T06:55:46;1.30;;;1.13;;
29824;SDS011;16713;52.916;12.834;2023-07-20T06:58:17;4.43;;;1.20;;
29824;SDS011;16713;52.916;12.834;2023-07-20T07:00:45;1.35;;;0.90;;
29824;SDS011;16713;52.916;12.834;2023-07-20T07:03:11;1.20;;;1.10;;
29824;SDS011;16713;52.916;12.834;2023-07-20T07:05:38;1.35;;;0.90;;
29824;SDS011;16713;52.916;12.834;2023-07-20T07:08:05;1.40;;;1.15;;
29824;SDS011;16713;52.916;12.834;2023-07-20T07:10:32;1.58;;;0.90;;
29824;SDS011;16713;52.916;12.834;2023-07-20T07:12:58;1.65;;;1.02;;
29824;SDS011;16713;52.916;12.834;2023-07-20T07:15:26;3.10;;;1.77;;
29824;SDS011;16713;52.916;12.834;2023-07-20T07:17:53;2.15;;;1.30;;
29824;SDS011;16713;52.916;12.834;2023-07-20T07:20:20;1.65;;;1.50;;
29824;SDS011;16713;52.916;12.834;2023-07-20T07:22:47;2.97;;;1.50;;
29824;SDS011;16713;52.916;12.834;2023-07-20T07:25:14;2.05;;;1.30;;
29824;SDS011;16713;52.916;12.834;2023-07-20T07:27:48;1.67;;;1.58;;
29824;SDS011;16713;52.916;12.834;2023-07-20T07:30:14;1.73;;;1.50;;
29824;SDS011;16713;52.916;12.834;2023-07-20T07:32:41;4.03;;;1.27;;
29824;SDS011;16713;52.916;12.834;2023-07-20T07:35:08;1.60;;;1.20;;
29824;SDS011;16713;52.916;12.834;2023-07-20T07:37:34;2.35;;;1.00;;
29824;SDS011;16713;52.916;12.834;2023-07-20T07:40:12;1.88;;;1.67;;
29824;SDS011;16713;52.916;12.834;2023-07-20T07:42:39;1.88;;;1.00;;
29824;SDS011;16713;52.916;12.834;2023-07-20T07:45:05;1.80;;;1.13;;
29824;SDS011;16713;52.916;12.834;2023-07-20T07:47:32;3.80;;;1.40;;
29824;SDS011;16713;52.916;12.834;2023-07-20T07:49:59;1.13;;;1.00;;
29824;SDS011;16713;52.916;12.834;2023-07-20T07:52:26;1.77;;;1.42;;
29824;SDS011;16713;52.916;12.834;2023-07-20T07:54:52;3.00;;;1.30;;
29824;SDS011;16713;52.916;12.834;2023-07-20T07:57:18;1.48;;;1.27;;
29824;SDS011;16713;52.916;12.834;2023-07-20T07:59:45;0.80;;;0.80;;
29824;SDS011;16713;52.916;12.834;2023-07-20T08:02:11;3.00;;;1.20;;
29824;SDS011;16713;52.916;12.834;2023-07-20T08:04:38;4.88;;;1.38;;
29824;SDS011;16713;52.916;12.834;2023-07-20T08:07:05;3.20;;;1.60;;
29824;SDS011;16713;52.916;12.834;2023-07-20T08:09:32;4.10;;;1.40;;
29824;SDS011;16713;52.916;12.834;2023-07-20T08:11:59;1.63;;;1.35;;
29824;SDS011;16713;52.916;12.834;2023-07-20T08:14:25;4.13;;;1.52;;
29824;SDS011;16713;52.916;12.834;2023-07-20T08:16:53;3.90;;;1.65;;
29824;SDS011;16713;52.916;12.834;2023-07-20T08:19:20;2.40;;;1.65;;
29824;SDS011;16713;52.916;12.834;2023-07-20T08:21:47;1.73;;;1.50;;
29824;SDS011;16713;52.916;12.834;2023-07-20T08:24:14;2.17;;;1.98;;
29824;SDS011;16713;52.916;12.834;2023-07-20T08:26:40;1.80;;;1.70;;
29824;SDS011;16713;52.916;12.834;2023-07-20T08:29:07;2.33;;;1.45;;
29824;SDS011;16713;52.916;12.834;2023-07-20T08:31:33;2.03;;;1.92;;
29824;SDS011;16713;52.916;12.834;2023-07-20T08:34:00;2.10;;;1.90;;
29824;SDS011;16713;52.916;12.834;2023-07-20T08:36:28;3.00;;;1.80;;
29824;SDS011;16713;52.916;12.834;2023-07-20T08:38:56;1.77;;;1.50;;
29824;SDS011;16713;52.916;12.834;2023-07-20T08:41:23;1.80;;;1.42;;
29824;SDS011;16713;52.916;12.834;2023-07-20T08:43:49;2.83;;;2.50;;
29824;SDS011;16713;52.916;12.834;2023-07-20T08:46:20;2.50;;;1.60;;
29824;SDS011;16713;52.916;12.834;2023-07-20T08:48:47;2.90;;;1.75;;
29824;SDS011;16713;52.916;12.834;2023-07-20T08:51:14;3.38;;;1.77;;
29824;SDS011;16713;52.916;12.834;2023-07-20T08:53:42;1.65;;;1.55;;
29824;SDS011;16713;52.916;12.834;2023-07-20T08:56:11;1.50;;;1.38;;
29824;SDS011;16713;52.916;12.834;2023-07-20T08:58:39;1.65;;;1.52;;
29824;SDS011;16713;52.916;12.834;2023-07-20T09:01:10;3.00;;;1.50;;
29824;SDS011;16713;52.916;12.834;2023-07-20T09:03:38;3.80;;;1.40;;
29824;SDS011;16713;52.916;12.834;2023-07-20T09:06:05;1.50;;;1.40;;
29824;SDS011;16713;52.916;12.834;2023-07-20T09:08:32;1.23;;;1.13;;
29824;SDS011;16713;52.916;12.834;2023-07-20T09:10:58;2.10;;;1.55;;
29824;SDS011;16713;52.916;12.834;2023-07-20T09:13:25;1.42;;;1.15;;
29824;SDS011;16713;52.916;12.834;2023-07-20T09:15:53;1.40;;;1.30;;
29824;SDS011;16713;52.916;12.834;2023-07-20T09:18:24;1.58;;;1.30;;
29824;SDS011;16713;52.916;12.834;2023-07-20T09:20:52;1.35;;;1.20;;
29824;SDS011;16713;52.916;12.834;2023-07-20T09:23:18;1.15;;;1.08;;
29824;SDS011;16713;52.916;12.834;2023-07-20T09:25:46;1.13;;;1.02;;
29824;SDS011;16713;52.916;12.834;2023-07-20T09:28:16;1.90;;;1.13;;
29824;SDS011;16713;52.916;12.834;2023-07-20T09:30:44;1.95;;;1.02;;
29824;SDS011;16713;52.916;12.834;2023-07-20T09:33:21;1.42;;;1.33;;
29824;SDS011;16713;52.916;12.834;2023-07-20T09:35:51;1.73;;;1.10;;
29824;SDS011;16713;52.916;12.834;2023-07-20T09:38:21;1.52;;;0.90;;
29824;SDS011;16713;52.916;12.834;2023-07-20T09:40:50;0.77;;;0.77;;
29824;SDS011;16713;52.916;12.834;2023-07-20T09:43:20;2.83;;;0.93;;
29824;SDS011;16713;52.916;12.834;2023-07-20T09:45:49;1.38;;;1.00;;
29824;SDS011;16713;52.916;12.834;2023-07-20T09:48:22;1.75;;;0.93;;
29824;SDS011;16713;52.916;12.834;2023-07-20T09:50:53;1.00;;;0.90;;
29824;SDS011;16713;52.916;12.834;2023-07-20T09:53:21;1.52;;;1.30;;
29824;SDS011;16713;52.916;12.834;2023-07-20T09:55:50;1.75;;;1.00;;
29824;SDS011;16713;52.916;12.834;2023-07-20T09:58:18;1.38;;;1.00;;
29824;SDS011;16713;52.916;12.834;2023-07-20T10:00:45;0.73;;;0.70;;
29824;SDS011;16713;52.916;12.834;2023-07-20T10:03:25;1.23;;;0.98;;
29824;SDS011;16713;52.916;12.834;2023-07-20T10:06:02;0.90;;;0.70;;
29824;SDS011;16713;52.916;12.834;2023-07-20T10:08:33;0.93;;;0.65;;
29824;SDS011;16713;52.916;12.834;2023-07-20T10:11:07;2.47;;;0.73;;
29824;SDS011;16713;52.916;12.834;2023-07-20T10:13:37;1.45;;;0.90;;
29824;SDS011;16713;52.916;12.834;2023-07-20T10:16:10;0.50;;;0.47;;
29824;SDS011;16713;52.916;12.834;2023-07-20T10:18:41;2.63;;;0.80;;
29824;SDS011;16713;52.916;12.834;2023-07-20T10:21:17;1.00;;;0.60;;
29824;SDS011;16713;52.916;12.834;2023-07-20T10:23:49;4.00;;;1.02;;
29824;SDS011;16713;52.916;12.834;2023-07-20T10:26:16;1.77;;;0.70;;
29824;SDS011;16713;52.916;12.834;2023-07-20T10:28:42;2.30;;;0.70;;
29824;SDS011;16713;52.916;12.834;2023-07-20T10:31:09;1.55;;;0.95;;
29824;SDS011;16713;52.916;12.834;2023-07-20T10:33:38;0.95;;;0.70;;
29824;SDS011;16713;52.916;12.834;2023-07-20T10:36:05;0.88;;;0.50;;
29824;SDS011;16713;52.916;12.834;2023-07-20T10:38:42;5.47;;;0.93;;
29824;SDS011;16713;52.916;12.834;2023-07-20T10:41:15;0.68;;;0.57;;
29824;SDS011;16713;52.916;12.834;2023-07-20T10:43:45;1.92;;;0.88;;
29824;SDS011;16713;52.916;12.834;2023-07-20T10:46:12;0.77;;;0.75;;
29824;SDS011;16713;52.916;12.834;2023-07-20T10:51:26;0.95;;;0.60;;
29824;SDS011;16713;52.916;12.834;2023-07-20T10:53:54;0.40;;;0.40;;
29824;SDS011;16713;52.916;12.834;2023-07-20T10:56:23;1.27;;;0.73;;
29824;SDS011;16713;52.916;12.834;2023-07-20T10:58:59;2.00;;;0.50;;
29824;SDS011;16713;52.916;12.834;2023-07-20T11:01:29;1.13;;;0.52;;
29824;SDS011;16713;52.916;12.834;2023-07-20T11:03:59;2.90;;;0.80;;
29824;SDS011;16713;52.916;12.834;2023-07-20T11:11:29;0.50;;;0.50;;
29824;SDS011;16713;52.916;12.834;2023-07-20T11:14:00;1.75;;;0.60;;
29824;SDS011;16713;52.916;12.834;2023-07-20T11:16:43;1.85;;;0.60;;
29824;SDS011;16713;52.916;12.834;2023-07-20T11:19:23;2.08;;;0.80;;
29824;SDS011;16713;52.916;12.834;2023-07-20T11:21:54;3.40;;;0.63;;
29824;SDS011;16713;52.916;12.834;2023-07-20T11:24:28;3.53;;;0.50;;
29824;SDS011;16713;52.916;12.834;2023-07-20T11:26:55;1.00;;;0.60;;
29824;SDS011;16713;52.916;12.834;2023-07-20T11:29:22;0.93;;;0.52;;
29824;SDS011;16713;52.916;12.834;2023-07-20T11:31:58;0.85;;;0.40;;
29824;SDS011;16713;52.916;12.834;2023-07-20T11:34:25;2.20;;;0.60;;
29824;SDS011;16713;52.916;12.834;2023-07-20T11:36:53;1.73;;;1.20;;
29824;SDS011;16713;52.916;12.834;2023-07-20T11:39:23;1.77;;;0.50;;
29824;SDS011;16713;52.916;12.834;2023-07-20T11:41:52;0.77;;;0.43;;
29824;SDS011;16713;52.916;12.834;2023-07-20T11:44:21;2.67;;;0.50;;
29824;SDS011;16713;52.916;12.834;2023-07-20T11:46:59;0.85;;;0.52;;
29824;SDS011;16713;52.916;12.834;2023-07-20T11:49:36;4.35;;;0.68;;
29824;SDS011;16713;52.916;12.834;2023-07-20T11:52:05;1.95;;;0.70;;
29824;SDS011;16713;52.916;12.834;2023-07-20T11:54:34;0.60;;;0.60;;
29824;SDS011;16713;52.916;12.834;2023-07-20T11:57:01;1.55;;;1.20;;
29824;SDS011;16713;52.916;12.834;2023-07-20T11:59:28;3.33;;;0.90;;
29824;SDS011;16713;52.916;12.834;2023-07-20T12:01:54;4.55;;;1.00;;
29824;SDS011;16713;52.916;12.834;2023-07-20T12:04:25;0.63;;;0.63;;
29824;SDS011;16713;52.916;12.834;2023-07-20T12:06:53;1.75;;;0.70;;
29824;SDS011;16713;52.916;12.834;2023-07-20T12:09:21;0.63;;;0.63;;
29824;SDS011;16713;52.916;12.834;2023-07-20T12:11:48;0.82;;;0.50;;
29824;SDS011;16713;52.916;12.834;2023-07-20T12:14:16;2.05;;;0.70;;
29824;SDS011;16713;52.916;12.834;2023-07-20T12:16:43;3.20;;;1.20;;
29824;SDS011;16713;52.916;12.834;2023-07-20T12:19:12;1.33;;;0.80;;
29824;SDS011;16713;52.916;12.834;2023-07-20T12:21:40;2.28;;;1.25;;
29824;SDS011;16713;52.916;12.834;2023-07-20T12:24:08;2.03;;;1.00;;
29824;SDS011;16713;52.916;12.834;2023-07-20T12:26:37;1.08;;;0.60;;
29824;SDS011;16713;52.916;12.834;2023-07-20T12:29:04;1.73;;;1.20;;
29824;SDS011;16713;52.916;12.834;2023-07-20T12:31:30;3.08;;;0.80;;
29824;SDS011;16713;52.916;12.834;2023-07-20T12:34:02;1.65;;;0.90;;
29824;SDS011;16713;52.916;12.834;2023-07-20T12:36:28;1.73;;;0.70;;
29824;SDS011;16713;52.916;12.834;2023-07-20T12:38:55;1.13;;;0.75;;
29824;SDS011;16713;52.916;12.834;2023-07-20T12:41:21;4.13;;;0.93;;
29824;SDS011;16713;52.916;12.834;2023-07-20T12:43:48;1.58;;;0.73;;
29824;SDS011;16713;52.916;12.834;2023-07-20T12:46:15;0.50;;;0.50;;
29824;SDS011;16713;52.916;12.834;2023-07-20T12:48:42;1.15;;;0.80;;
29824;SDS011;16713;52.916;12.834;2023-07-20T12:51:13;1.47;;;0.83;;
29824;SDS011;16713;52.916;12.834;2023-07-20T12:53:40;1.00;;;0.90;;
29824;SDS011;16713;52.916;12.834;2023-07-20T12:56:06;1.63;;;1.00;;
29824;SDS011;16713;52.916;12.834;2023-07-20T12:58:36;2.88;;;1.25;;
29824;SDS011;16713;52.916;12.834;2023-07-20T13:01:04;3.10;;;0.90;;
29824;SDS011;16713;52.916;12.834;2023-07-20T13:03:30;1.75;;;0.90;;
29824;SDS011;16713;52.916;12.834;2023-07-20T13:05:59;1.38;;;0.70;;
29824;SDS011;16713;52.916;12.834;2023-07-20T13:08:28;0.70;;;0.60;;
29824;SDS011;16713;52.916;12.834;2023-07-20T13:10:55;0.77;;;0.70;;
29824;SDS011;16713;52.916;12.834;2023-07-20T13:13:21;0.90;;;0.70;;
29824;SDS011;16713;52.916;12.834;2023-07-20T13:15:48;1.38;;;0.80;;
29824;SDS011;16713;52.916;12.834;2023-07-20T13:18:15;2.80;;;0.80;;
29824;SDS011;16713;52.916;12.834;2023-07-20T13:20:41;1.23;;;0.80;;
29824;SDS011;16713;52.916;12.834;2023-07-20T13:23:08;1.15;;;0.80;;
29824;SDS011;16713;52.916;12.834;2023-07-20T13:25:34;2.05;;;0.63;;
29824;SDS011;16713;52.916;12.834;2023-07-20T13:28:01;1.70;;;0.77;;
29824;SDS011;16713;52.916;12.834;2023-07-20T13:30:28;1.75;;;0.95;;
29824;SDS011;16713;52.916;12.834;2023-07-20T13:32:54;1.60;;;0.80;;
29824;SDS011;16713;52.916;12.834;2023-07-20T13:35:21;0.90;;;0.85;;
29824;SDS011;16713;52.916;12.834;2023-07-20T13:37:48;0.98;;;0.88;;
29824;SDS011;16713;52.916;12.834;2023-07-20T13:40:15;0.70;;;0.70;;
29824;SDS011;16713;52.916;12.834;2023-07-20T13:42:43;1.45;;;0.93;;
29824;SDS011;16713;52.916;12.834;2023-07-20T13:45:11;1.40;;;1.17;;
29824;SDS011;16713;52.916;12.834;2023-07-20T13:47:39;1.35;;;0.70;;
29824;SDS011;16713;52.916;12.834;2023-07-20T13:50:06;1.67;;;1.17;;
29824;SDS011;16713;52.916;12.834;2023-07-20T13:52:33;2.45;;;0.90;;
29824;SDS011;16713;52.916;12.834;2023-07-20T13:55:04;1.30;;;0.90;;
29824;SDS011;16713;52.916;12.834;2023-07-20T13:57:31;1.17;;;1.08;;
29824;SDS011;16713;52.916;12.834;2023-07-20T14:00:00;2.70;;;0.95;;
29824;SDS011;16713;52.916;12.834;2023-07-20T14:02:28;1.50;;;1.17;;
29824;SDS011;16713;52.916;12.834;2023-07-20T14:04:57;2.92;;;1.17;;
29824;SDS011;16713;52.916;12.834;2023-07-20T14:07:27;3.70;;;1.00;;
29824;SDS011;16713;52.916;12.834;2023-07-20T14:09:55;0.90;;;0.75;;
29824;SDS011;16713;52.916;12.834;2023-07-20T14:12:24;1.98;;;0.90;;
29824;SDS011;16713;52.916;12.834;2023-07-20T14:14:51;1.08;;;0.77;;
29824;SDS011;16713;52.916;12.834;2023-07-20T14:17:17;3.13;;;0.93;;
29824;SDS011;16713;52.916;12.834;2023-07-20T14:19:44;5.68;;;1.10;;
29824;SDS011;16713;52.916;12.834;2023-07-20T14:22:10;2.92;;;1.35;;
29824;SDS011;16713;52.916;12.834;2023-07-20T14:24:38;1.60;;;0.80;;
29824;SDS011;16713;52.916;12.834;2023-07-20T14:27:04;3.17;;;1.00;;
29824;SDS011;16713;52.916;12.834;2023-07-20T14:29:31;3.17;;;1.35;;
29824;SDS011;16713;52.916;12.834;2023-07-20T14:31:58;2.08;;;1.30;;
29824;SDS011;16713;52.916;12.834;2023-07-20T14:34:26;0.90;;;0.90;;
29824;SDS011;16713;52.916;12.834;2023-07-20T14:36:52;1.40;;;0.90;;
29824;SDS011;16713;52.916;12.834;2023-07-20T14:39:19;2.00;;;0.80;;
29824;SDS011;16713;52.916;12.834;2023-07-20T14:41:46;1.25;;;1.10;;
29824;SDS011;16713;52.916;12.834;2023-07-20T14:44:13;1.23;;;0.95;;
29824;SDS011;16713;52.916;12.834;2023-07-20T14:46:40;2.35;;;1.13;;
29824;SDS011;16713;52.916;12.834;2023-07-20T14:49:06;1.35;;;0.93;;
29824;SDS011;16713;52.916;12.834;2023-07-20T14:51:32;2.33;;;1.00;;
29824;SDS011;16713;52.916;12.834;2023-07-20T14:54:02;3.63;;;1.10;;